Time;durP1;ratioP1;P1;durP2;ratioP2;P2;SDS_P1;SDS_P2;PMS_P1;PMS_P2;Temp;Humidity;BMP_temperature;BMP_pressure;BME280_temperature;BME280_humidity;BME280_pressure;Samples;Min_cycle;Max_cycle;Signal;HPM_P1;HPM_P2
2022/09/15 00:01:15;;;;;;;10.48;5.05;;;12.20;99.90;;;;;;4971208;28;20891;-89
2022/09/15 00:03:43;;;;;;;11.50;5.00;;;12.20;99.90;;;;;;4955769;29;20404;-88
2022/09/15 00:06:11;;;;;;;10.60;4.50;;;12.10;99.90;;;;;;4956296;29;20816;-89
2022/09/15 00:08:39;;;;;;;10.52;5.00;;;12.00;99.90;;;;;;4955879;29;20490;-89
2022/09/15 00:11:17;;;;;;;7.03;4.00;;;12.00;99.90;;;;;;4955607;29;20904;-88
2022/09/15 00:13:46;;;;;;;10.05;4.53;;;12.00;99.90;;;;;;4955931;29;20420;-88
2022/09/15 00:16:15;;;;;;;12.80;4.90;;;11.90;99.90;;;;;;4957074;28;20397;-89
2022/09/15 00:18:44;;;;;;;7.93;4.33;;;11.90;99.90;;;;;;4956755;28;20428;-88
2022/09/15 00:21:18;;;;;;;10.82;4.18;;;11.80;99.90;;;;;;4955579;29;20408;-87
2022/09/15 00:23:47;;;;;;;13.53;4.37;;;11.80;99.90;;;;;;4959362;28;20417;-89
2022/09/15 00:26:18;;;;;;;10.43;4.53;;;11.90;99.90;;;;;;4971771;28;20517;-88
2022/09/15 00:28:46;;;;;;;9.20;5.03;;;11.80;99.90;;;;;;4974678;28;20895;-88
2022/09/15 00:31:17;;;;;;;9.43;4.95;;;11.90;99.90;;;;;;4974888;28;20790;-88
2022/09/15 00:33:49;;;;;;;9.18;4.35;;;11.90;99.90;;;;;;4975889;28;20483;-88
2022/09/15 00:36:18;;;;;;;8.97;4.30;;;11.90;99.90;;;;;;4974472;28;20809;-88
2022/09/15 00:38:46;;;;;;;8.38;4.88;;;11.90;99.90;;;;;;4974924;28;20414;-87
2022/09/15 00:41:16;;;;;;;12.13;5.10;;;11.90;99.90;;;;;;4974683;28;20413;-88
2022/09/15 00:43:47;;;;;;;8.77;4.35;;;11.90;99.90;;;;;;4975853;28;20399;-87
2022/09/15 00:46:17;;;;;;;10.50;5.45;;;11.90;99.90;;;;;;4974589;28;20893;-87
2022/09/15 00:48:56;;;;;;;12.45;5.00;;;12.00;99.90;;;;;;4968683;28;20867;-87
2022/09/15 00:51:35;;;;;;;11.02;5.45;;;12.00;99.90;;;;;;4971290;28;20479;-88
2022/09/15 00:54:08;;;;;;;10.93;5.00;;;12.00;99.90;;;;;;4955440;29;20960;-87
2022/09/15 00:56:38;;;;;;;8.77;4.60;;;12.00;99.90;;;;;;4960244;28;20399;-86
2022/09/15 00:59:11;;;;;;;8.10;4.50;;;12.00;99.90;;;;;;4955941;28;20396;-86
2022/09/15 01:01:40;;;;;;;10.35;5.32;;;12.00;99.90;;;;;;4971038;28;20404;-87
2022/09/15 01:04:08;;;;;;;9.35;4.70;;;12.00;99.90;;;;;;4955694;28;20406;-87
2022/09/15 01:06:46;;;;;;;13.07;4.82;;;12.00;99.90;;;;;;4970838;28;20396;-87
2022/09/15 01:09:22;;;;;;;8.15;3.80;;;11.90;99.90;;;;;;4970654;28;20775;-86
2022/09/15 01:11:50;;;;;;;10.65;4.88;;;11.90;99.90;;;;;;4970583;28;20891;-87
2022/09/15 01:14:17;;;;;;;7.70;4.05;;;11.80;99.90;;;;;;4970540;28;20404;-87
2022/09/15 01:17:11;;;;;;;9.88;4.05;;;11.90;99.90;;;;;;4970512;28;20408;-87
2022/09/15 01:20:10;;;;;;;11.77;4.82;;;12.00;99.90;;;;;;4970600;28;20872;-86
2022/09/15 01:23:01;;;;;;;9.80;3.90;;;12.00;99.90;;;;;;4970312;28;20416;-86
2022/09/15 01:25:49;;;;;;;9.02;3.67;;;12.10;99.90;;;;;;4948743;28;20471;-86
2022/09/15 01:29:03;;;;;;;11.07;3.50;;;11.90;99.90;;;;;;4954203;29;20898;-85
2022/09/15 01:34:40;;;;;;;10.15;4.78;;;12.00;99.90;;;;;;4957335;28;20415;-87
2022/09/15 01:37:16;;;;;;;9.48;3.40;;;12.00;99.90;;;;;;4967053;28;20937;-87
2022/09/15 01:39:46;;;;;;;8.18;3.83;;;11.90;99.90;;;;;;4954114;29;20456;-86
2022/09/15 01:42:16;;;;;;;12.32;4.28;;;11.90;99.90;;;;;;4963801;28;20408;-87
2022/09/15 01:44:57;;;;;;;10.30;3.50;;;11.90;99.90;;;;;;4962910;28;20938;-87
2022/09/15 01:47:28;;;;;;;8.10;3.75;;;11.90;99.90;;;;;;4968965;28;20399;-87
2022/09/15 01:50:05;;;;;;;9.40;3.47;;;11.90;99.90;;;;;;4973288;28;20909;-86
2022/09/15 01:52:33;;;;;;;8.32;3.50;;;12.00;99.90;;;;;;4954011;29;20491;-87
2022/09/15 01:55:06;;;;;;;8.75;3.63;;;11.90;99.90;;;;;;4958311;28;20396;-87
2022/09/15 01:57:34;;;;;;;8.55;3.25;;;11.90;99.90;;;;;;4953729;29;20413;-86
2022/09/15 02:00:02;;;;;;;9.40;3.70;;;11.80;99.90;;;;;;4954008;29;20428;-87
2022/09/15 02:02:43;;;;;;;8.60;3.38;;;11.90;99.90;;;;;;4969920;28;20453;-86
2022/09/15 02:05:29;;;;;;;9.15;3.47;;;11.90;99.90;;;;;;4969601;28;20460;-86
2022/09/15 02:08:14;;;;;;;10.65;3.70;;;11.90;99.90;;;;;;4965065;28;20404;-87
2022/09/15 02:10:48;;;;;;;10.32;3.35;;;11.80;99.90;;;;;;4973022;28;20481;-87
2022/09/15 02:13:20;;;;;;;12.43;3.60;;;11.80;99.90;;;;;;4972759;28;20480;-86
2022/09/15 02:15:52;;;;;;;8.93;3.67;;;11.80;99.90;;;;;;4953413;28;20396;-87
2022/09/15 02:18:44;;;;;;;9.63;3.65;;;11.80;99.90;;;;;;4972638;28;20406;-87
2022/09/15 02:21:20;;;;;;;10.88;3.72;;;11.70;99.90;;;;;;4970101;28;20404;-86
2022/09/15 02:23:53;;;;;;;9.30;4.00;;;11.60;99.90;;;;;;4969150;28;20424;-89
2022/09/15 02:26:26;;;;;;;8.50;3.80;;;11.70;99.90;;;;;;4953358;29;20459;-89
2022/09/15 02:28:55;;;;;;;9.02;3.92;;;11.70;99.90;;;;;;4960983;28;20396;-88
2022/09/15 02:31:24;;;;;;;11.38;4.15;;;11.80;99.90;;;;;;4953146;29;20974;-88
2022/09/15 02:34:02;;;;;;;12.87;3.90;;;11.80;99.90;;;;;;4969093;28;20420;-88
2022/09/15 02:36:30;;;;;;;10.98;3.40;;;11.80;99.90;;;;;;4969071;28;20492;-88
2022/09/15 02:39:08;;;;;;;9.27;3.40;;;11.70;99.90;;;;;;4963735;28;20921;-89
2022/09/15 02:41:36;;;;;;;7.70;3.17;;;11.70;99.90;;;;;;4953046;29;20495;-89
2022/09/15 02:44:03;;;;;;;7.20;3.67;;;11.80;99.90;;;;;;4952971;29;20520;-88
2022/09/15 02:46:32;;;;;;;8.38;3.42;;;11.80;99.90;;;;;;4945367;28;20770;-89
2022/09/15 02:49:00;;;;;;;8.43;3.60;;;11.70;99.90;;;;;;4969095;28;20404;-88
2022/09/15 02:51:28;;;;;;;9.48;3.60;;;11.70;99.90;;;;;;4953465;28;20899;-89
2022/09/15 02:53:56;;;;;;;9.73;4.03;;;11.70;99.90;;;;;;4952772;29;20432;-88
2022/09/15 02:56:24;;;;;;;9.10;3.60;;;11.70;99.90;;;;;;4959933;28;20422;-88
2022/09/15 02:58:51;;;;;;;7.45;3.53;;;11.70;99.90;;;;;;4966825;28;20403;-88
2022/09/15 03:01:19;;;;;;;10.23;4.38;;;11.70;99.90;;;;;;4971970;28;20478;-88
2022/09/15 03:03:46;;;;;;;8.93;3.85;;;11.70;99.90;;;;;;4969976;28;20403;-88
2022/09/15 03:06:17;;;;;;;11.68;4.03;;;11.80;99.90;;;;;;4971991;28;20402;-87
2022/09/15 03:08:49;;;;;;;8.55;3.72;;;11.80;99.90;;;;;;4950676;29;20516;-88
2022/09/15 03:11:19;;;;;;;9.67;3.83;;;11.80;99.90;;;;;;4953133;28;20403;-88
2022/09/15 03:13:48;;;;;;;11.10;3.67;;;11.80;99.90;;;;;;4955362;28;20416;-87
2022/09/15 03:16:15;;;;;;;11.27;3.80;;;11.70;99.90;;;;;;4952833;29;20474;-87
2022/09/15 03:18:43;;;;;;;11.52;3.92;;;11.70;99.90;;;;;;4953806;28;20391;-88
2022/09/15 03:21:12;;;;;;;8.70;3.83;;;11.70;99.90;;;;;;4971497;28;20400;-87
2022/09/15 03:23:41;;;;;;;10.43;4.47;;;11.70;99.90;;;;;;4971975;28;20445;-86
2022/09/15 03:26:09;;;;;;;8.85;4.28;;;11.60;99.90;;;;;;4969757;28;20398;-88
2022/09/15 03:28:38;;;;;;;11.95;4.18;;;11.60;99.90;;;;;;4956273;28;20410;-86
2022/09/15 03:31:07;;;;;;;10.70;4.37;;;11.60;99.90;;;;;;4970721;28;20438;-87
2022/09/15 03:33:36;;;;;;;13.32;4.32;;;11.60;99.90;;;;;;4971675;28;20497;-88
2022/09/15 03:36:05;;;;;;;11.55;4.88;;;11.60;99.90;;;;;;4976121;28;20390;-87
2022/09/15 03:38:33;;;;;;;9.30;4.20;;;11.60;99.90;;;;;;4975855;28;20480;-88
2022/09/15 03:41:02;;;;;;;11.95;4.13;;;11.70;99.90;;;;;;4975483;28;20498;-88
2022/09/15 03:43:30;;;;;;;11.13;4.18;;;11.70;99.90;;;;;;4972281;28;20406;-87
2022/09/15 03:45:58;;;;;;;12.00;5.25;;;11.60;99.90;;;;;;4957500;29;20404;-88
2022/09/15 03:48:27;;;;;;;11.07;4.60;;;11.60;99.90;;;;;;4962837;28;20905;-87
2022/09/15 03:50:55;;;;;;;11.52;4.40;;;11.60;99.90;;;;;;4975327;28;20403;-88
2022/09/15 03:53:22;;;;;;;13.60;4.50;;;11.60;99.90;;;;;;4956004;28;20495;-88
2022/09/15 03:55:50;;;;;;;10.13;3.95;;;11.60;99.90;;;;;;4971805;28;20415;-86
2022/09/15 03:58:18;;;;;;;10.90;4.80;;;11.60;99.90;;;;;;4974032;28;20433;-89
2022/09/15 04:00:46;;;;;;;11.00;3.73;;;11.60;99.90;;;;;;4974900;28;20501;-88
2022/09/15 04:03:13;;;;;;;11.25;4.18;;;11.60;99.90;;;;;;4964796;28;20753;-88
2022/09/15 04:05:41;;;;;;;8.20;3.60;;;11.50;99.90;;;;;;4967345;28;20398;-89
2022/09/15 04:08:11;;;;;;;9.38;4.15;;;11.40;99.90;;;;;;4970204;28;20408;-87
2022/09/15 04:10:40;;;;;;;12.18;4.85;;;11.40;99.90;;;;;;4968063;28;20438;-87
2022/09/15 04:13:08;;;;;;;12.77;4.65;;;11.50;99.90;;;;;;4956199;28;20746;-89
2022/09/15 04:15:35;;;;;;;10.35;3.88;;;11.50;99.90;;;;;;4975058;28;20497;-87
2022/09/15 04:18:03;;;;;;;10.73;3.97;;;11.50;99.90;;;;;;4975262;28;20753;-88
2022/09/15 04:20:31;;;;;;;10.70;4.65;;;11.40;99.90;;;;;;4974755;28;20405;-88
2022/09/15 04:22:58;;;;;;;10.85;4.50;;;11.30;99.90;;;;;;4974883;28;20486;-88
2022/09/15 04:25:26;;;;;;;11.68;5.20;;;11.30;99.90;;;;;;4974735;28;20406;-86
2022/09/15 04:27:55;;;;;;;14.23;4.45;;;11.40;99.90;;;;;;4976032;28;20477;-86
2022/09/15 04:30:23;;;;;;;14.55;5.40;;;11.40;99.90;;;;;;4974721;28;20881;-87
2022/09/15 04:32:51;;;;;;;11.13;4.32;;;11.30;99.90;;;;;;4974609;28;20391;-87
2022/09/15 04:35:20;;;;;;;12.80;4.30;;;11.40;99.90;;;;;;4974820;28;20430;-87
2022/09/15 04:37:48;;;;;;;9.80;4.72;;;11.30;99.90;;;;;;4974115;28;20425;-86
2022/09/15 04:40:16;;;;;;;12.48;5.18;;;11.30;99.90;;;;;;4975567;28;20394;-88
2022/09/15 04:42:45;;;;;;;9.33;4.77;;;11.30;99.90;;;;;;4974458;28;20399;-88
2022/09/15 04:45:13;;;;;;;11.52;5.13;;;11.30;99.90;;;;;;4974389;28;20398;-87
2022/09/15 04:47:40;;;;;;;12.25;4.88;;;11.30;99.90;;;;;;4975538;28;20390;-88
2022/09/15 04:50:08;;;;;;;12.13;4.88;;;11.30;99.90;;;;;;4974454;28;20399;-87
2022/09/15 04:52:36;;;;;;;12.10;5.03;;;11.40;99.90;;;;;;4974346;28;20429;-87
2022/09/15 04:55:04;;;;;;;13.55;4.28;;;11.40;99.90;;;;;;4974211;28;20411;-88
2022/09/15 04:57:32;;;;;;;12.43;5.25;;;11.30;99.90;;;;;;4974271;28;20470;-88
2022/09/15 05:00:02;;;;;;;14.38;4.80;;;11.30;99.90;;;;;;4974314;28;20398;-87
2022/09/15 05:02:30;;;;;;;13.52;4.10;;;11.40;99.90;;;;;;4971826;28;20415;-88
2022/09/15 05:04:58;;;;;;;13.17;4.27;;;11.30;99.90;;;;;;4947173;29;20395;-87
2022/09/15 05:07:25;;;;;;;7.97;4.13;;;11.30;99.90;;;;;;4960325;28;20408;-86
2022/09/15 05:09:53;;;;;;;9.55;4.20;;;11.40;99.90;;;;;;4967513;28;20493;-88
2022/09/15 05:12:21;;;;;;;10.57;4.65;;;11.30;99.90;;;;;;4963161;28;20411;-87
2022/09/15 05:14:48;;;;;;;11.23;3.90;;;11.30;99.90;;;;;;4954758;29;20436;-87
2022/09/15 05:17:16;;;;;;;14.45;4.18;;;11.30;99.90;;;;;;4954518;29;20408;-88
2022/09/15 05:19:43;;;;;;;15.18;4.97;;;11.40;99.90;;;;;;4965397;28;20390;-88
2022/09/15 05:22:11;;;;;;;10.77;3.78;;;11.40;99.90;;;;;;4974329;28;20834;-88
2022/09/15 05:24:38;;;;;;;14.23;5.00;;;11.40;99.90;;;;;;4973662;28;20394;-89
2022/09/15 05:27:06;;;;;;;12.45;5.22;;;11.30;99.90;;;;;;4973776;28;20394;-87
2022/09/15 05:29:33;;;;;;;11.23;3.83;;;11.40;99.90;;;;;;4973642;28;20543;-88
2022/09/15 05:32:01;;;;;;;12.65;4.55;;;11.40;99.90;;;;;;4963809;28;20400;-85
2022/09/15 05:34:29;;;;;;;13.40;3.63;;;11.40;99.90;;;;;;4955530;28;20494;-87
2022/09/15 05:36:56;;;;;;;13.75;3.92;;;11.30;99.90;;;;;;4955426;29;20472;-86
2022/09/15 05:39:24;;;;;;;12.13;4.40;;;11.30;99.90;;;;;;4968994;28;20420;-86
2022/09/15 05:41:51;;;;;;;8.52;3.65;;;11.30;99.90;;;;;;4953760;29;20408;-85
2022/09/15 05:44:20;;;;;;;9.93;3.80;;;11.30;99.90;;;;;;4969782;28;20392;-86
2022/09/15 05:46:48;;;;;;;9.82;3.55;;;11.30;99.90;;;;;;4953748;29;20456;-86
2022/09/15 05:49:15;;;;;;;10.02;3.42;;;11.30;99.90;;;;;;4968755;28;20887;-86
2022/09/15 05:51:43;;;;;;;10.75;3.92;;;11.20;99.90;;;;;;4953551;29;20953;-85
2022/09/15 05:54:10;;;;;;;11.73;4.30;;;11.30;99.90;;;;;;4937652;29;20495;-87
2022/09/15 05:56:38;;;;;;;14.00;4.57;;;11.30;99.90;;;;;;4953737;29;20404;-86
2022/09/15 05:59:06;;;;;;;14.45;4.72;;;11.30;99.90;;;;;;4953591;28;20444;-86
2022/09/15 06:01:34;;;;;;;11.00;4.45;;;11.30;99.90;;;;;;4937736;29;20405;-85
2022/09/15 06:04:02;;;;;;;11.57;4.40;;;11.30;99.90;;;;;;4953473;29;20409;-86
2022/09/15 06:06:31;;;;;;;9.93;3.80;;;11.30;99.90;;;;;;4969410;28;20404;-85
2022/09/15 06:08:59;;;;;;;12.25;4.10;;;11.30;99.90;;;;;;4954543;28;20435;-86
2022/09/15 06:11:29;;;;;;;10.60;4.00;;;11.30;99.90;;;;;;4953479;28;20753;-86
2022/09/15 06:14:01;;;;;;;11.57;3.83;;;11.20;99.90;;;;;;4954598;29;20823;-85
2022/09/15 06:16:34;;;;;;;11.13;4.03;;;11.10;99.90;;;;;;4954488;29;20749;-86
2022/09/15 06:19:02;;;;;;;12.32;3.65;;;11.10;99.90;;;;;;4953172;29;20879;-86
2022/09/15 06:21:31;;;;;;;11.63;3.40;;;11.20;99.90;;;;;;4954288;28;20809;-86
2022/09/15 06:24:02;;;;;;;9.85;3.53;;;11.20;99.90;;;;;;4969031;28;20408;-86
2022/09/15 06:26:29;;;;;;;12.50;3.80;;;11.20;99.90;;;;;;4954280;28;20407;-85
2022/09/15 06:29:00;;;;;;;10.00;3.67;;;11.30;99.90;;;;;;4953249;29;20435;-86
2022/09/15 06:31:32;;;;;;;10.60;3.30;;;11.30;99.90;;;;;;4968972;28;20467;-86
2022/09/15 06:34:02;;;;;;;9.70;3.67;;;11.20;99.90;;;;;;4969008;28;20491;-86
2022/09/15 06:36:30;;;;;;;13.40;3.30;;;11.30;99.90;;;;;;4952957;29;20400;-85
2022/09/15 06:38:58;;;;;;;11.23;4.43;;;11.30;99.90;;;;;;4953188;29;20478;-86
2022/09/15 06:41:29;;;;;;;13.93;4.30;;;11.30;99.90;;;;;;4968915;28;20420;-87
2022/09/15 06:44:18;;;;;;;9.87;4.10;;;11.30;99.90;;;;;;4952953;29;20407;-86
2022/09/15 06:46:46;;;;;;;9.25;3.70;;;11.30;99.90;;;;;;4953172;28;20410;-86
2022/09/15 06:49:13;;;;;;;7.43;3.92;;;11.20;99.90;;;;;;4968864;28;20392;-87
2022/09/15 06:51:41;;;;;;;12.55;3.75;;;11.30;99.90;;;;;;4952803;28;20396;-86
2022/09/15 06:54:08;;;;;;;9.63;3.95;;;11.30;99.90;;;;;;4968893;28;20795;-86
2022/09/15 06:56:36;;;;;;;20.73;4.57;;;11.30;99.90;;;;;;4952661;29;20400;-86
2022/09/15 06:59:05;;;;;;;10.77;4.03;;;11.30;99.90;;;;;;4952846;28;20396;-86
2022/09/15 07:01:32;;;;;;;9.90;4.00;;;11.30;99.90;;;;;;4952249;28;20488;-87
2022/09/15 07:04:03;;;;;;;9.88;4.07;;;11.30;99.90;;;;;;4952823;29;20423;-87
2022/09/15 07:06:32;;;;;;;9.32;3.95;;;11.30;99.90;;;;;;4952718;29;21063;-87
2022/09/15 07:09:01;;;;;;;11.48;4.07;;;11.30;99.90;;;;;;4953683;28;20424;-86
2022/09/15 07:11:29;;;;;;;11.57;3.90;;;11.30;99.90;;;;;;4952414;29;20471;-86
2022/09/15 07:13:57;;;;;;;11.35;3.33;;;11.30;99.90;;;;;;4953627;28;20979;-86
2022/09/15 07:16:25;;;;;;;9.97;3.17;;;11.40;99.90;;;;;;4952605;29;20483;-87
2022/09/15 07:18:59;;;;;;;8.05;3.58;;;11.40;99.90;;;;;;4952539;29;20404;-86
2022/09/15 07:21:27;;;;;;;10.02;3.42;;;11.40;99.90;;;;;;4968551;28;20469;-86
2022/09/15 07:23:56;;;;;;;10.73;3.47;;;11.40;99.90;;;;;;4953337;29;20487;-86
2022/09/15 07:26:26;;;;;;;11.00;3.90;;;11.40;99.90;;;;;;4952518;29;20774;-86
2022/09/15 07:28:56;;;;;;;10.85;3.53;;;11.40;99.90;;;;;;4968284;28;20432;-86
2022/09/15 07:31:26;;;;;;;10.23;3.67;;;11.50;99.90;;;;;;4953466;29;20392;-85
2022/09/15 07:33:54;;;;;;;10.10;3.60;;;11.50;99.90;;;;;;4952706;28;20784;-87
2022/09/15 07:36:22;;;;;;;8.07;4.20;;;11.50;99.90;;;;;;4968436;28;20404;-87
2022/09/15 07:38:50;;;;;;;9.80;3.55;;;11.50;99.90;;;;;;4953342;29;20396;-86
2022/09/15 07:41:23;;;;;;;8.67;3.50;;;11.50;99.90;;;;;;4968257;28;20388;-86
2022/09/15 07:43:53;;;;;;;9.82;3.70;;;11.50;99.90;;;;;;4968337;28;20392;-86
2022/09/15 07:46:23;;;;;;;11.07;4.55;;;11.50;99.90;;;;;;4953560;29;20392;-85
2022/09/15 07:48:55;;;;;;;8.70;3.85;;;11.60;99.90;;;;;;4968476;28;20403;-85
2022/09/15 07:51:23;;;;;;;9.52;4.05;;;11.60;99.90;;;;;;4968298;28;20459;-85
2022/09/15 07:53:52;;;;;;;9.45;4.30;;;11.50;99.90;;;;;;4952204;28;20400;-86
2022/09/15 07:56:22;;;;;;;9.00;3.90;;;11.60;99.90;;;;;;4952153;29;20408;-86
2022/09/15 07:58:50;;;;;;;11.73;4.70;;;11.50;99.90;;;;;;4968022;28;20426;-86
2022/09/15 08:01:19;;;;;;;9.98;4.03;;;11.60;99.90;;;;;;4951920;29;20823;-85
2022/09/15 08:03:49;;;;;;;9.55;3.70;;;11.60;99.90;;;;;;4967954;28;20400;-85
2022/09/15 08:06:22;;;;;;;8.95;3.80;;;11.60;99.90;;;;;;4952120;29;20455;-86
2022/09/15 08:08:51;;;;;;;11.80;4.40;;;11.60;99.90;;;;;;4953327;29;20487;-85
2022/09/15 08:11:25;;;;;;;8.27;4.07;;;11.70;99.90;;;;;;4951939;29;20867;-86
2022/09/15 08:13:53;;;;;;;8.95;4.22;;;11.70;99.90;;;;;;4954601;29;20402;-86
2022/09/15 08:16:22;;;;;;;9.93;4.22;;;11.70;99.90;;;;;;4955827;28;20462;-86
2022/09/15 08:18:54;;;;;;;10.05;4.05;;;11.70;99.90;;;;;;4955404;29;20400;-86
2022/09/15 08:21:21;;;;;;;9.45;4.20;;;11.80;99.90;;;;;;4955922;28;20400;-86
2022/09/15 08:23:51;;;;;;;10.85;3.97;;;11.80;99.90;;;;;;4955376;29;20499;-87
2022/09/15 08:26:19;;;;;;;8.60;3.80;;;11.80;99.90;;;;;;4956831;29;20388;-86
2022/09/15 08:28:47;;;;;;;10.07;4.15;;;11.80;99.90;;;;;;4971401;28;20392;-85
2022/09/15 08:31:15;;;;;;;10.65;4.90;;;11.80;99.90;;;;;;4955314;29;20491;-85
2022/09/15 08:33:48;;;;;;;8.10;3.72;;;11.80;99.90;;;;;;4955003;29;20401;-86
2022/09/15 08:36:16;;;;;;;9.88;4.22;;;11.90;99.90;;;;;;4955234;29;20487;-87
2022/09/15 08:38:44;;;;;;;8.00;3.55;;;11.90;99.90;;;;;;4971307;28;20475;-85
2022/09/15 08:41:35;;;;;;;6.20;3.42;;;12.00;99.90;;;;;;4955135;28;20404;-85
2022/09/15 08:44:21;;;;;;;9.02;3.40;;;12.00;99.90;;;;;;4954822;29;20479;-86
2022/09/15 08:47:01;;;;;;;7.57;3.58;;;11.90;99.90;;;;;;4955227;28;20392;-86
2022/09/15 08:49:39;;;;;;;6.88;3.13;;;12.00;99.90;;;;;;4955048;29;20459;-86
2022/09/15 08:52:33;;;;;;;7.18;3.13;;;12.00;99.90;;;;;;4954905;29;20411;-86
2022/09/15 08:55:08;;;;;;;9.32;3.50;;;12.00;99.90;;;;;;4954979;28;20819;-86
2022/09/15 08:57:36;;;;;;;11.38;4.32;;;12.00;99.90;;;;;;4954614;29;20435;-85
2022/09/15 09:00:05;;;;;;;9.68;4.25;;;12.00;99.90;;;;;;4955056;28;20548;-85
2022/09/15 09:03:12;;;;;;;10.18;4.60;;;12.00;99.90;;;;;;4954485;29;20772;-86
2022/09/15 09:05:44;;;;;;;10.70;4.05;;;12.00;99.90;;;;;;4939004;29;20602;-86
2022/09/15 09:08:30;;;;;;;10.05;4.30;;;12.00;99.90;;;;;;4954742;28;20419;-86
2022/09/15 09:11:42;;;;;;;14.03;5.37;;;12.00;99.90;;;;;;4954628;28;20400;-86
2022/09/15 09:14:34;;;;;;;9.82;3.85;;;12.00;99.90;;;;;;4954207;28;20416;-86
2022/09/15 09:17:29;;;;;;;9.15;4.05;;;12.00;99.90;;;;;;4938441;29;20408;-85
2022/09/15 09:20:25;;;;;;;7.07;3.08;;;12.10;99.90;;;;;;4954279;28;20412;-85
2022/09/15 09:22:53;;;;;;;8.10;3.08;;;12.10;99.90;;;;;;4954610;29;20399;-86
2022/09/15 09:25:21;;;;;;;7.13;2.90;;;12.10;99.90;;;;;;4970261;28;20423;-86
2022/09/15 09:27:57;;;;;;;7.50;2.73;;;12.20;99.90;;;;;;4954186;29;20486;-85
2022/09/15 09:30:28;;;;;;;9.23;2.45;;;12.20;99.90;;;;;;4954081;29;20491;-86
2022/09/15 09:33:24;;;;;;;8.68;2.50;;;12.30;99.90;;;;;;4954322;29;20412;-86
2022/09/15 09:35:52;;;;;;;6.50;2.60;;;12.40;99.90;;;;;;4970117;28;20408;-86
2022/09/15 09:38:30;;;;;;;6.35;2.83;;;12.50;99.90;;;;;;4970183;28;20891;-85
2022/09/15 09:40:58;;;;;;;9.65;3.00;;;12.50;99.90;;;;;;4954178;29;20764;-85
2022/09/15 09:43:29;;;;;;;9.18;2.60;;;12.50;99.90;;;;;;4954749;28;20479;-84
2022/09/15 09:45:58;;;;;;;6.55;2.30;;;12.50;99.90;;;;;;4954023;29;20970;-86
2022/09/15 09:48:27;;;;;;;5.97;2.42;;;12.60;99.90;;;;;;4953834;29;20950;-85
2022/09/15 09:50:55;;;;;;;6.57;2.53;;;12.60;99.90;;;;;;4954105;28;20899;-87
2022/09/15 09:53:30;;;;;;;7.20;2.30;;;12.70;99.90;;;;;;4953806;29;20405;-86
2022/09/15 09:56:17;;;;;;;7.80;2.70;;;12.70;99.90;;;;;;4953665;29;20404;-86
2022/09/15 09:58:44;;;;;;;5.55;2.45;;;12.70;99.90;;;;;;4953887;28;20485;-85
2022/09/15 10:01:16;;;;;;;10.23;2.33;;;12.60;99.90;;;;;;4953505;28;20396;-85
2022/09/15 10:03:46;;;;;;;7.53;2.25;;;12.70;99.90;;;;;;4969760;28;20396;-86
2022/09/15 10:06:21;;;;;;;5.68;2.10;;;12.70;99.90;;;;;;4969625;28;20453;-85
2022/09/15 10:08:56;;;;;;;6.60;2.43;;;12.70;99.90;;;;;;4953492;29;20483;-86
2022/09/15 10:12:00;;;;;;;6.50;1.92;;;12.80;99.90;;;;;;4953712;29;20408;-85
2022/09/15 10:14:40;;;;;;;6.03;2.15;;;12.90;99.90;;;;;;4952799;29;20491;-86
2022/09/15 10:17:21;;;;;;;7.10;2.58;;;12.90;99.90;;;;;;4953571;29;20887;-85
2022/09/15 10:19:51;;;;;;;7.90;2.00;;;12.90;99.90;;;;;;4953131;29;20974;-85
2022/09/15 10:22:45;;;;;;;8.23;2.30;;;12.90;99.90;;;;;;4969524;28;20439;-86
2022/09/15 10:25:19;;;;;;;7.05;2.00;;;12.90;99.90;;;;;;4952683;29;20430;-86
2022/09/15 10:28:11;;;;;;;6.70;2.00;;;13.00;99.90;;;;;;4953193;28;20467;-85
2022/09/15 10:31:00;;;;;;;6.28;1.92;;;13.10;99.90;;;;;;4953265;28;20408;-86
2022/09/15 10:33:40;;;;;;;6.43;2.10;;;13.20;99.90;;;;;;4951375;28;21606;-86
2022/09/15 10:36:18;;;;;;;6.45;2.05;;;13.30;99.90;;;;;;4954767;28;20408;-85
2022/09/15 10:39:02;;;;;;;6.07;1.85;;;13.40;99.90;;;;;;4972318;28;20813;-85
2022/09/15 10:41:31;;;;;;;4.57;1.77;;;13.50;99.90;;;;;;4968828;28;20487;-86
2022/09/15 10:44:25;;;;;;;5.13;1.83;;;13.50;99.90;;;;;;4952878;29;20946;-85
2022/09/15 10:47:11;;;;;;;5.65;1.83;;;13.40;99.90;;;;;;4953107;29;20846;-85
2022/09/15 10:50:02;;;;;;;6.80;1.95;;;13.30;99.90;;;;;;4961143;28;20556;-86
2022/09/15 10:52:56;;;;;;;8.17;1.80;;;13.20;99.90;;;;;;4963528;28;20735;-87
2022/09/15 10:55:51;;;;;;;8.05;1.95;;;13.20;99.90;;;;;;4965405;28;20417;-86
2022/09/15 10:58:55;;;;;;;5.45;2.00;;;13.20;99.90;;;;;;4969610;28;20418;-86
2022/09/15 11:01:29;;;;;;;4.65;1.83;;;13.30;99.90;;;;;;4950280;28;20404;-84
2022/09/15 11:04:19;;;;;;;4.63;1.92;;;13.30;99.90;;;;;;4959706;28;20451;-85
2022/09/15 11:07:09;;;;;;;7.00;2.20;;;13.40;99.90;;;;;;4958222;28;20423;-85
2022/09/15 11:10:00;;;;;;;6.32;1.80;;;13.60;99.90;;;;;;4967816;28;20506;-85
2022/09/15 11:12:59;;;;;;;6.15;2.03;;;13.70;99.90;;;;;;4968616;28;20415;-86
2022/09/15 11:15:51;;;;;;;5.53;1.90;;;13.80;99.90;;;;;;4977844;28;20415;-85
2022/09/15 11:18:57;;;;;;;5.63;1.90;;;13.90;99.90;;;;;;4987921;28;20493;-86
2022/09/15 11:21:31;;;;;;;5.07;1.80;;;13.90;99.90;;;;;;4969960;28;20501;-86
2022/09/15 11:24:15;;;;;;;5.55;1.92;;;14.00;99.90;;;;;;4971630;28;20399;-86
2022/09/15 11:27:11;;;;;;;7.28;1.75;;;14.00;99.90;;;;;;4971777;28;20896;-86
2022/09/15 11:29:59;;;;;;;6.65;1.70;;;13.90;99.90;;;;;;4971160;28;20469;-85
2022/09/15 11:32:50;;;;;;;4.88;1.70;;;13.90;99.90;;;;;;4973897;28;20423;-86
2022/09/15 11:35:35;;;;;;;5.40;1.55;;;13.90;99.90;;;;;;4976373;28;20501;-85
2022/09/15 11:38:33;;;;;;;7.57;1.90;;;14.20;99.90;;;;;;4995552;28;20417;-86
2022/09/15 11:41:23;;;;;;;8.60;1.60;;;14.30;99.90;;;;;;4973430;28;20430;-85
2022/09/15 11:44:12;;;;;;;6.40;1.95;;;14.30;99.90;;;;;;4977015;28;20397;-85
2022/09/15 11:47:04;;;;;;;5.47;1.73;;;14.30;99.90;;;;;;4952703;28;20820;-85
2022/09/15 11:50:10;;;;;;;5.63;1.90;;;14.10;99.90;;;;;;4948698;28;20418;-86
2022/09/15 11:52:59;;;;;;;4.97;1.50;;;14.10;99.90;;;;;;4972322;28;20414;-85
2022/09/15 11:55:36;;;;;;;6.35;1.48;;;14.00;99.90;;;;;;4955687;29;20420;-85
2022/09/15 11:58:19;;;;;;;6.25;1.80;;;14.00;99.90;;;;;;4956957;28;20803;-85
2022/09/15 12:01:17;;;;;;;5.95;1.30;;;14.00;99.90;;;;;;4959346;28;20404;-85
2022/09/15 12:04:07;;;;;;;4.95;1.60;;;14.00;99.90;;;;;;4950813;28;20739;-86
2022/09/15 12:06:40;;;;;;;6.03;1.55;;;14.20;99.90;;;;;;4971684;28;20404;-86
2022/09/15 12:09:19;;;;;;;5.95;1.50;;;14.20;99.90;;;;;;4974254;28;20406;-86
2022/09/15 12:11:57;;;;;;;4.90;1.60;;;14.20;99.90;;;;;;4974940;28;20481;-85
2022/09/15 12:14:34;;;;;;;6.20;1.50;;;14.30;99.90;;;;;;4975119;28;20398;-85
2022/09/15 12:17:04;;;;;;;4.13;1.50;;;14.20;99.90;;;;;;4976007;28;20410;-87
2022/09/15 12:19:34;;;;;;;4.15;1.40;;;14.20;99.90;;;;;;4974539;28;20415;-87
2022/09/15 12:22:27;;;;;;;4.30;1.58;;;14.10;99.90;;;;;;4975971;28;20933;-86
2022/09/15 12:25:10;;;;;;;5.33;1.60;;;14.00;99.90;;;;;;4975870;28;20394;-85
2022/09/15 12:27:37;;;;;;;5.18;1.80;;;14.00;99.90;;;;;;4975670;28;20390;-85
2022/09/15 12:30:25;;;;;;;4.30;1.60;;;13.90;99.90;;;;;;4975564;28;20448;-86
2022/09/15 12:32:55;;;;;;;8.50;2.00;;;13.90;99.90;;;;;;4956424;28;20942;-88
2022/09/15 12:35:23;;;;;;;5.55;1.50;;;13.80;99.90;;;;;;4956333;28;20411;-86
2022/09/15 12:37:58;;;;;;;3.33;1.40;;;13.90;99.90;;;;;;4961445;28;20936;-87
2022/09/15 12:40:36;;;;;;;3.70;1.55;;;13.80;99.90;;;;;;4971029;28;20864;-86
2022/09/15 12:43:10;;;;;;;3.85;1.40;;;13.80;99.90;;;;;;4971505;28;20397;-85
2022/09/15 12:45:40;;;;;;;4.53;1.60;;;13.80;99.90;;;;;;4955225;28;20808;-86
2022/09/15 12:48:15;;;;;;;5.45;1.50;;;13.80;99.90;;;;;;4971237;28;20393;-86
2022/09/15 12:50:56;;;;;;;5.90;1.90;;;13.80;99.90;;;;;;4970978;28;20397;-86
2022/09/15 12:53:25;;;;;;;4.20;1.67;;;13.80;99.90;;;;;;4953948;28;20423;-85
2022/09/15 12:55:56;;;;;;;5.88;1.85;;;13.90;99.90;;;;;;4952538;28;20416;-84
2022/09/15 12:58:45;;;;;;;5.50;1.50;;;13.80;99.90;;;;;;4954552;28;20813;-86
2022/09/15 13:01:21;;;;;;;4.97;1.77;;;13.90;99.90;;;;;;4954918;29;20396;-85
2022/09/15 13:03:49;;;;;;;4.03;1.60;;;14.00;99.90;;;;;;4955973;28;20761;-86
2022/09/15 13:06:27;;;;;;;4.57;1.67;;;14.00;99.90;;;;;;4956362;28;20396;-86
2022/09/15 13:09:04;;;;;;;6.18;1.70;;;14.10;99.90;;;;;;4954558;29;20411;-87
2022/09/15 13:11:49;;;;;;;5.40;1.70;;;14.10;99.90;;;;;;4954563;29;20412;-84
2022/09/15 13:14:35;;;;;;;5.57;1.50;;;14.10;99.90;;;;;;4954772;29;20484;-85
2022/09/15 13:17:13;;;;;;;6.10;1.65;;;14.00;99.90;;;;;;4955487;28;20412;-86
2022/09/15 13:19:45;;;;;;;6.10;1.75;;;14.10;99.90;;;;;;4955530;28;20396;-84
2022/09/15 13:22:28;;;;;;;6.13;1.75;;;14.10;99.90;;;;;;4955881;28;20492;-85